< < Back
Terminal Aerodrome Forecast


Current Version              Previous Versions:   1  2  3  4  5  6  7  8  9  

Terminal Aerodrome Forecast

625
FTUS44 KBMX 062337
TAFANB
TAF
KANB 062337Z 0700/0724 01004KT P6SM SCT150 SCT250
     FM071700 30008KT P6SM SCT250=

Latest METAR

630
SAUS70 KWBC 072200 RRA
MTRANB
METAR KANB 072153Z AUTO 26007KT 10SM CLR 13/M07 A3003 RMK AO2 SLP177
T01331067


USA.gov is the U.S. government's official web portal to all federal, state and local government web resources and services.